CYVV

Details ICAO CYVV (YVV)
Name WIARTON
Region Canada
Timezone America/Toronto (UTC-4.0)
Plans Departing 13
Arriving 11
Stats Elevation 729 ft / 222 m (AMSL)
Location 44.743125° -81.108194°
Runways 2
Magnetic Variation 9.546° W
Sunrise 2018-05-25 09:48:03 UTC / 2018-05-25 05:48:03 Local
Sunset 2018-05-26 00:57:37 UTC / 2018-05-25 20:57:37 Local
Advertisement - Login to hide

Runways

ID Width Length Bearing (true) Bearing (mag) Surface Threshold Offset Overrun Length
05 150 ft / 46 m 5,026 ft / 1,532 m 43.44° 52.99° Asphalt 0 ft / 0 m 0 ft / 0 m
11 100 ft / 30 m 3,066 ft / 935 m 99.51° 109.06° Gravel 0 ft / 0 m 0 ft / 0 m
23 150 ft / 46 m 5,026 ft / 1,532 m 223.45° 233.00° Asphalt 0 ft / 0 m 0 ft / 0 m
29 100 ft / 30 m 3,066 ft / 935 m 279.52° 289.07° Gravel 0 ft / 0 m 0 ft / 0 m

Map

Weather


0- 5 10 15 20 25 30 35+ Temperature / ° C

Clouds and Precipitation
Forecast for 2018-05-26 00:00 UTC. Updated 5 minutes ago

Ground ~20,000 ft ~40,000 ft Winds

METAR

CYVV 252300Z 23011G19KT 15SM FEW040 SCT100 BKN250 23/12 A2976 RMK SC1AC3CI2 SLP078 DENSITY ALT 2000FT

TAF

TAF CYVV 251938Z 2520/2523 24010KT P6SM SCT030 BKN100 TEMPO 2521/2523 P6SM -SHRA BKN030 OVC100 PROB30 2522/2523 VRB15G25KT 2SM TSRA BR BKN030 OVC080CB RMK NXT FCST WILL BE ISSUED AT 261045Z

Frequencies

Tower 122.20 MHz MF
Warning: Do not use this data for real-world aviation or navigation. No guarantee of current accuracy is given.